createdAt,value
2022-10-15T00:03:36.911Z,9.40
2022-10-15T00:08:40.249Z,9.40
2022-10-15T00:13:43.356Z,9.40
2022-10-15T00:18:45.973Z,9.50
2022-10-15T00:23:49.589Z,9.30
2022-10-15T00:28:54.055Z,9.30
2022-10-15T00:34:01.026Z,9.20
2022-10-15T00:39:06.105Z,9.10
2022-10-15T00:44:29.969Z,9.00
2022-10-15T00:49:42.904Z,9.20
2022-10-15T00:55:05.030Z,9.20
2022-10-15T01:00:15.410Z,9.10
2022-10-15T01:05:18.819Z,9.00
2022-10-15T01:10:21.938Z,9.10
2022-10-15T01:15:53.394Z,9.20
2022-10-15T01:21:13.195Z,9.30
2022-10-15T01:26:37.110Z,9.30
2022-10-15T01:32:11.645Z,9.40
2022-10-15T01:37:29.031Z,9.30
2022-10-15T01:42:48.720Z,9.20
2022-10-15T01:48:00.384Z,9.30
2022-10-15T01:53:04.495Z,9.30
2022-10-15T01:58:08.726Z,9.30
2022-10-15T02:03:11.846Z,9.40
2022-10-15T02:08:25.007Z,9.50
2022-10-15T02:13:56.073Z,9.50
2022-10-15T02:19:24.652Z,9.40
2022-10-15T02:24:33.372Z,9.20
2022-10-15T02:29:41.581Z,9.10
2022-10-15T02:34:46.235Z,9.20
2022-10-15T02:39:49.293Z,9.10
2022-10-15T02:44:51.817Z,9.10
2022-10-15T02:49:54.219Z,9.30
2022-10-15T02:54:56.736Z,10.00
2022-10-15T02:59:59.332Z,10.50
2022-10-15T03:05:02.949Z,9.90
2022-10-15T03:10:06.338Z,10.60
2022-10-15T03:15:09.392Z,10.20
2022-10-15T03:20:12.002Z,9.80
2022-10-15T03:25:15.474Z,10.00
2022-10-15T03:30:18.755Z,10.90
2022-10-15T03:35:22.552Z,10.60
2022-10-15T03:40:25.382Z,10.70
2022-10-15T03:45:32.597Z,10.40
2022-10-15T03:50:49.077Z,10.40
2022-10-15T03:55:51.806Z,10.30
2022-10-15T04:00:54.329Z,10.70
2022-10-15T04:05:58.719Z,10.40
2022-10-15T04:11:04.891Z,10.10
2022-10-15T04:16:08.058Z,10.00
2022-10-15T04:21:10.794Z,9.90
2022-10-15T04:26:15.971Z,10.00
2022-10-15T04:31:18.375Z,10.00
2022-10-15T04:36:22.435Z,9.90
2022-10-15T04:41:33.422Z,9.90
2022-10-15T04:46:39.927Z,9.90
2022-10-15T04:51:58.005Z,10.20
2022-10-15T04:57:05.813Z,10.30
2022-10-15T05:02:08.393Z,10.20
2022-10-15T05:07:11.681Z,10.60
2022-10-15T05:12:16.171Z,10.60
2022-10-15T05:17:18.666Z,10.60
2022-10-15T05:22:21.358Z,10.50
2022-10-15T05:27:28.489Z,10.50
2022-10-15T05:32:30.966Z,10.80
2022-10-15T05:37:33.952Z,11.20
2022-10-15T05:42:36.890Z,10.90
2022-10-15T05:47:41.324Z,11.70
2022-10-15T05:52:54.640Z,11.10
2022-10-15T05:58:11.579Z,10.70
2022-10-15T06:03:14.880Z,10.90
2022-10-15T06:08:17.694Z,11.00
2022-10-15T06:13:20.085Z,10.90
2022-10-15T06:18:24.538Z,11.20
2022-10-15T06:23:26.916Z,11.00
2022-10-15T06:28:29.576Z,10.90
2022-10-15T06:33:34.019Z,11.20
2022-10-15T06:38:36.913Z,11.20
2022-10-15T06:43:39.553Z,11.20
2022-10-15T06:48:41.937Z,11.10
2022-10-15T06:53:44.310Z,11.10
2022-10-15T06:58:46.838Z,11.10
2022-10-15T07:03:50.561Z,11.30
2022-10-15T07:08:52.886Z,11.50
2022-10-15T07:13:57.511Z,11.60
2022-10-15T07:18:59.867Z,11.70
2022-10-15T07:24:02.311Z,11.80
2022-10-15T07:29:05.259Z,12.10
2022-10-15T07:34:07.674Z,12.20
2022-10-15T07:39:10.503Z,12.30
2022-10-15T07:44:12.966Z,12.30
2022-10-15T07:49:16.414Z,12.40
2022-10-15T07:54:19.892Z,12.30
2022-10-15T07:59:22.601Z,12.30
2022-10-15T08:04:25.400Z,12.50
2022-10-15T08:09:27.739Z,13.00
2022-10-15T08:14:30.216Z,13.40
2022-10-15T08:19:33.170Z,13.50
2022-10-15T08:24:35.577Z,13.50
2022-10-15T08:29:37.972Z,13.80
2022-10-15T08:34:40.334Z,14.40
2022-10-15T08:39:42.731Z,14.50
2022-10-15T08:45:16.821Z,14.40
2022-10-15T08:50:43.123Z,14.20
2022-10-15T08:55:50.411Z,14.20
2022-10-15T09:01:21.441Z,13.90
2022-10-15T09:06:39.267Z,13.80
2022-10-15T09:11:51.439Z,13.70
2022-10-15T09:16:54.248Z,13.80
2022-10-15T09:21:58.079Z,13.90
2022-10-15T09:27:34.206Z,14.10
2022-10-15T09:32:54.538Z,14.40
2022-10-15T09:38:16.133Z,14.50
2022-10-15T09:43:30.857Z,14.60
2022-10-15T09:48:41.882Z,14.80
2022-10-15T09:54:06.152Z,15.10
2022-10-15T09:59:17.660Z,15.30
2022-10-15T10:04:20.882Z,15.30
2022-10-15T10:09:33.714Z,15.50
2022-10-15T10:14:53.182Z,15.90
2022-10-15T10:20:18.356Z,16.10
2022-10-15T10:30:34.776Z,16.40
2022-10-15T10:35:46.666Z,16.20
2022-10-15T10:40:59.215Z,16.10
2022-10-15T10:46:03.921Z,16.20
2022-10-15T10:51:19.044Z,16.60
2022-10-15T10:56:34.000Z,16.70
2022-10-15T11:01:36.696Z,16.60
2022-10-15T11:06:55.068Z,16.40
2022-10-15T11:12:38.618Z,16.10
2022-10-15T11:17:43.980Z,15.90
2022-10-15T11:23:09.614Z,15.80
2022-10-15T11:28:32.076Z,15.80
2022-10-15T11:34:03.135Z,16.10
2022-10-15T11:39:11.622Z,16.20
2022-10-15T11:44:48.008Z,16.20
2022-10-15T11:50:17.239Z,16.60
2022-10-15T11:55:24.546Z,17.10
2022-10-15T12:00:39.654Z,17.30
2022-10-15T12:06:11.765Z,17.00
2022-10-15T12:11:34.914Z,16.80
2022-10-15T12:16:58.615Z,16.70
2022-10-15T12:22:11.244Z,16.50
2022-10-15T12:27:19.455Z,16.40
2022-10-15T12:32:28.050Z,16.30
2022-10-15T12:37:34.749Z,16.20
2022-10-15T12:42:40.041Z,16.20
2022-10-15T12:47:54.332Z,16.20
2022-10-15T12:53:02.871Z,16.40
2022-10-15T12:58:37.642Z,16.50
2022-10-15T13:03:52.060Z,16.60
2022-10-15T13:09:05.734Z,16.60
2022-10-15T13:14:29.031Z,16.70
2022-10-15T13:19:46.371Z,16.80
2022-10-15T13:24:48.769Z,16.80
2022-10-15T13:30:04.549Z,17.00
2022-10-15T13:35:13.560Z,16.90
2022-10-15T13:40:22.580Z,16.70
2022-10-15T13:45:24.990Z,16.90
2022-10-15T13:50:30.484Z,16.50
2022-10-15T13:55:39.114Z,16.80
2022-10-15T14:00:42.136Z,16.70
2022-10-15T14:05:46.766Z,16.60
2022-10-15T14:10:50.974Z,16.60
2022-10-15T14:16:22.510Z,16.50
2022-10-15T14:21:32.514Z,16.40
2022-10-15T14:26:35.547Z,16.30
2022-10-15T14:31:40.658Z,16.40
2022-10-15T14:36:43.433Z,16.30
2022-10-15T14:42:30.900Z,16.20
2022-10-15T14:47:33.800Z,16.10
2022-10-15T14:52:37.377Z,16.00
2022-10-15T14:57:44.549Z,15.80
2022-10-15T15:02:47.747Z,15.70
2022-10-15T15:07:50.607Z,15.70
2022-10-15T15:12:57.176Z,15.60
2022-10-15T15:18:01.851Z,15.60
2022-10-15T15:23:04.559Z,15.60
2022-10-15T15:28:20.688Z,15.40
2022-10-15T15:33:23.564Z,15.30
2022-10-15T15:38:31.314Z,15.30
2022-10-15T15:43:34.186Z,15.30
2022-10-15T15:48:37.702Z,15.30
2022-10-15T15:53:40.424Z,15.00
2022-10-15T15:58:43.420Z,15.00
2022-10-15T16:03:46.109Z,15.10
2022-10-15T16:08:52.017Z,15.70
2022-10-15T16:13:54.400Z,15.30
2022-10-15T16:18:56.864Z,15.10
2022-10-15T16:29:06.697Z,15.40
2022-10-15T16:34:09.457Z,15.20
2022-10-15T16:39:11.925Z,15.10
2022-10-15T16:44:14.371Z,14.80
2022-10-15T16:49:16.959Z,14.70
2022-10-15T16:54:20.075Z,14.60
2022-10-15T16:59:22.704Z,14.50
2022-10-15T17:04:25.013Z,14.40
2022-10-15T17:09:27.373Z,14.40
2022-10-15T17:14:29.995Z,14.40
2022-10-15T17:19:34.209Z,14.40
2022-10-15T17:24:37.010Z,14.30
2022-10-15T17:29:39.736Z,14.30
2022-10-15T17:34:42.183Z,14.40
2022-10-15T17:39:44.562Z,14.30
2022-10-15T17:44:47.018Z,14.30
2022-10-15T17:49:49.558Z,14.10
2022-10-15T17:54:51.958Z,13.90
2022-10-15T17:59:54.304Z,14.00
2022-10-15T18:04:56.719Z,14.00
2022-10-15T18:10:01.617Z,14.10
2022-10-15T18:15:04.505Z,14.00
2022-10-15T18:20:07.273Z,14.10
2022-10-15T18:25:09.817Z,14.10
2022-10-15T18:30:12.490Z,14.10
2022-10-15T18:35:14.868Z,14.10
2022-10-15T18:40:17.372Z,14.10
2022-10-15T18:45:19.942Z,14.10
2022-10-15T18:50:22.577Z,14.10
2022-10-15T18:55:26.040Z,14.10
2022-10-15T19:00:29.410Z,14.20
2022-10-15T19:05:31.799Z,14.20
2022-10-15T19:10:34.531Z,14.20
2022-10-15T19:15:36.915Z,14.20
2022-10-15T19:20:40.645Z,14.10
2022-10-15T19:25:44.553Z,14.10
2022-10-15T19:30:57.815Z,14.10
2022-10-15T19:36:00.909Z,14.10
2022-10-15T19:41:04.632Z,14.20
2022-10-15T19:46:07.236Z,14.10
2022-10-15T19:51:09.998Z,14.10
2022-10-15T19:56:12.473Z,14.00
2022-10-15T20:01:15.034Z,14.00
2022-10-15T20:06:19.064Z,13.90
2022-10-15T20:11:21.693Z,14.00
2022-10-15T20:16:24.840Z,13.90
2022-10-15T20:21:29.124Z,13.90
2022-10-15T20:26:31.545Z,13.90
2022-10-15T20:31:35.693Z,13.60
2022-10-15T20:36:41.355Z,13.30
2022-10-15T20:41:43.733Z,13.10
2022-10-15T20:46:57.484Z,12.90
2022-10-15T20:51:59.983Z,12.70
2022-10-15T20:57:02.860Z,12.60
2022-10-15T21:02:08.543Z,12.50
2022-10-15T21:07:11.090Z,12.40
2022-10-15T21:12:13.583Z,12.20
2022-10-15T21:17:16.066Z,12.10
2022-10-15T21:22:18.458Z,12.20
2022-10-15T21:27:20.940Z,11.90
2022-10-15T21:32:23.411Z,11.90
2022-10-15T21:37:25.969Z,11.70
2022-10-15T21:42:30.462Z,11.70
2022-10-15T21:47:33.161Z,11.70
2022-10-15T21:52:35.863Z,11.70
2022-10-15T21:57:38.303Z,11.70
2022-10-15T22:02:40.817Z,11.70
2022-10-15T22:07:43.180Z,11.80
2022-10-15T22:12:51.485Z,11.90
2022-10-15T22:17:53.909Z,11.90
2022-10-15T22:22:59.161Z,11.80
2022-10-15T22:28:01.517Z,11.80
2022-10-15T22:33:04.239Z,11.90
2022-10-15T22:38:06.622Z,11.80
2022-10-15T22:43:09.233Z,12.00
2022-10-15T22:48:11.752Z,12.10
2022-10-15T22:53:14.255Z,12.10
2022-10-15T22:58:16.754Z,12.10
2022-10-15T23:03:20.077Z,12.20
2022-10-15T23:08:23.022Z,12.20
2022-10-15T23:13:25.391Z,12.20
2022-10-15T23:18:28.019Z,12.20
2022-10-15T23:23:30.354Z,12.10
2022-10-15T23:28:32.756Z,12.10
2022-10-15T23:33:35.392Z,12.00
2022-10-15T23:38:37.775Z,12.10
2022-10-15T23:43:40.136Z,12.00
2022-10-15T23:48:42.646Z,11.90
2022-10-15T23:53:45.461Z,11.90
2022-10-15T23:58:52.599Z,11.90
